Time;durP1;ratioP1;P1;durP2;ratioP2;P2;SDS_P1;SDS_P2;PMS_P1;PMS_P2;Temp;Humidity;BMP_temperature;BMP_pressure;BME280_temperature;BME280_humidity;BME280_pressure;Samples;Min_cycle;Max_cycle;Signal;HPM_P1;HPM_P2
2023/04/21 00:00:54;;;;;;;33.87;3.70;;;;;;;22.60;58.46;99552.00;7310894;19;129203;-36
2023/04/21 00:03:22;;;;;;;49.53;4.63;;;;;;;22.58;58.48;99553.09;7308533;19;129142;-38
2023/04/21 00:05:48;;;;;;;48.97;4.75;;;;;;;22.57;59.03;99551.47;7307243;19;130734;-35
2023/04/21 00:08:14;;;;;;;71.90;5.70;;;;;;;22.57;58.75;99554.06;7307748;19;131503;-35
2023/04/21 00:10:39;;;;;;;16.63;2.53;;;;;;;22.57;58.25;99556.69;7308478;19;129208;-35
2023/04/21 00:13:04;;;;;;;59.30;4.97;;;;;;;22.58;58.72;99547.84;7308054;19;129426;-36
2023/04/21 00:15:30;;;;;;;47.13;4.40;;;;;;;22.59;59.12;99552.94;7304803;19;130486;-36
2023/04/21 00:17:56;;;;;;;35.22;3.65;;;;;;;22.59;58.84;99549.53;7307427;19;129632;-34
2023/04/21 00:20:22;;;;;;;;;;;;;;;22.66;59.22;99547.97;7304516;19;130784;-35
2023/04/21 00:22:49;;;;;;;47.40;4.22;;;;;;;22.58;58.54;99543.44;7308290;19;130293;-32
2023/04/21 00:25:14;;;;;;;;;;;;;;;22.66;59.05;99555.84;7307772;19;130920;-38
2023/04/21 00:27:40;;;;;;;8.97;2.33;;;;;;;22.59;58.66;99545.09;7307074;19;129189;-34
2023/04/21 00:30:06;;;;;;;10.57;2.67;;;;;;;22.57;58.45;99547.06;7305146;19;129341;-36
2023/04/21 00:32:31;;;;;;;82.60;6.40;;;;;;;22.56;58.55;99544.56;7306594;19;129923;-38
2023/04/21 00:34:56;;;;;;;44.45;4.43;;;;;;;22.55;58.91;99538.50;7307538;19;130137;-33
2023/04/21 00:37:22;;;;;;;62.75;5.22;;;;;;;22.45;58.42;99521.97;7304589;19;130878;-36
2023/04/21 00:39:47;;;;;;;32.57;3.47;;;;;;;22.55;59.51;99541.13;7302028;19;131531;-34
2023/04/21 00:42:15;;;;;;;55.53;4.77;;;;;;;22.55;59.30;99524.56;7306685;19;128924;-37
2023/04/21 00:44:40;;;;;;;31.80;3.50;;;;;;;22.53;59.09;99524.72;7306825;19;130234;-33
2023/04/21 00:47:05;;;;;;;26.30;3.20;;;;;;;22.53;58.50;99529.13;7304004;19;131150;-35
2023/04/21 00:49:31;;;;;;;68.93;5.57;;;;;;;22.52;58.33;99528.28;7303929;19;131284;-36
2023/04/21 00:51:57;;;;;;;46.60;4.13;;;;;;;22.49;58.36;99522.50;7307520;19;130130;-35
2023/04/21 00:54:24;;;;;;;67.13;5.50;;;;;;;22.50;58.63;99521.53;7305150;19;129662;-37
2023/04/21 00:56:50;;;;;;;28.15;3.63;;;;;;;22.48;59.29;99520.84;7304158;19;131925;-34
2023/04/21 00:59:16;;;;;;;36.77;3.87;;;;;;;22.50;58.62;99532.00;7304699;19;130557;-34
2023/04/21 01:01:41;;;;;;;67.10;5.32;;;;;;;22.48;58.98;99529.53;7305280;19;129203;-35
2023/04/21 01:04:09;;;;;;;39.27;4.67;;;;;;;22.49;58.78;99538.25;7308103;19;130084;-37
2023/04/21 01:06:34;;;;;;;29.65;3.65;;;;;;;22.49;58.85;99527.75;7163097;19;2902226;-36
2023/04/21 01:09:00;;;;;;;31.42;3.42;;;;;;;22.48;59.32;99532.16;7314607;19;129540;-35
2023/04/21 01:11:26;;;;;;;50.27;4.57;;;;;;;22.49;58.92;99533.00;7310782;19;130383;-36
2023/04/21 01:13:55;;;;;;;33.92;4.32;;;;;;;22.48;59.46;99531.31;7315806;19;129461;-36
2023/04/21 01:16:22;;;;;;;39.63;4.03;;;;;;;22.46;58.77;99528.06;7315188;19;129223;-39
2023/04/21 01:18:47;;;;;;;;;;;;;;;22.56;58.65;99529.66;7316015;19;129322;-31
2023/04/21 01:21:14;;;;;;;40.00;3.90;;;;;;;22.47;58.81;99519.22;7316432;19;129305;-40
2023/04/21 01:23:40;;;;;;;;;;;;;;;22.51;59.39;99520.59;7313908;19;129625;-30
2023/04/21 01:26:05;;;;;;;26.23;3.23;;;;;;;22.47;59.44;99521.84;7313350;19;129561;-35
2023/04/21 01:28:31;;;;;;;46.75;4.63;;;;;;;22.47;59.07;99524.44;7314548;19;129922;-37
2023/04/21 01:30:56;;;;;;;59.90;4.93;;;;;;;22.46;59.14;99517.56;7315631;19;129655;-35
2023/04/21 01:33:22;;;;;;;56.45;5.07;;;;;;;22.45;58.45;99515.91;7314863;19;129528;-36
2023/04/21 01:35:48;;;;;;;46.60;4.70;;;;;;;22.43;59.04;99508.19;7313241;19;129381;-36
2023/04/21 01:38:17;;;;;;;49.87;4.33;;;;;;;22.44;59.26;99511.66;7315271;19;129353;-36
2023/04/21 01:40:45;;;;;;;38.92;4.05;;;;;;;22.38;59.48;99507.81;7315847;19;129938;-38
2023/04/21 01:43:11;;;;;;;28.75;3.30;;;;;;;22.40;59.08;99512.91;7316298;19;131072;-40
2023/04/21 01:45:37;;;;;;;43.88;4.32;;;;;;;22.42;58.78;99516.22;7313126;19;129710;-35
2023/04/21 01:48:02;;;;;;;75.55;6.03;;;;;;;22.39;59.15;99506.88;7313862;19;128744;-39
2023/04/21 01:50:27;;;;;;;29.90;3.70;;;;;;;22.40;58.76;99507.66;7313372;19;128933;-31
2023/04/21 01:52:53;;;;;;;61.70;5.53;;;;;;;22.41;58.55;99510.13;7316440;19;130091;-33
2023/04/21 01:55:19;;;;;;;70.70;5.80;;;;;;;22.41;58.75;99502.28;7313232;19;131085;-38
2023/04/21 01:57:44;;;;;;;41.95;4.07;;;;;;;22.42;58.69;99505.72;7315183;19;128919;-34
2023/04/21 02:00:10;;;;;;;37.10;4.03;;;;;;;22.42;59.25;99505.72;7313331;19;129216;-37
2023/04/21 02:02:35;;;;;;;39.85;3.83;;;;;;;22.42;59.30;99497.88;7314118;19;130750;-37
2023/04/21 02:05:01;;;;;;;40.78;4.13;;;;;;;22.29;59.06;99479.06;7314649;19;129656;-38
2023/04/21 02:07:26;;;;;;;55.58;4.68;;;;;;;22.39;59.38;99495.56;7311910;19;130174;-32
2023/04/21 02:09:51;;;;;;;30.30;3.37;;;;;;;22.41;58.73;99498.84;7311490;19;130441;-36
2023/04/21 02:12:17;;;;;;;30.37;3.53;;;;;;;22.38;58.90;99493.91;7314659;19;131044;-33
2023/04/21 02:14:42;;;;;;;40.58;4.03;;;;;;;22.40;58.79;99497.19;7311430;19;129604;-38
2023/04/21 02:17:08;;;;;;;69.33;5.57;;;;;;;22.39;58.96;99498.16;7312238;19;128831;-38
2023/04/21 02:19:33;;;;;;;36.83;3.73;;;;;;;22.42;59.37;99500.50;7312309;19;129180;-38
2023/04/21 02:21:59;;;;;;;27.00;3.53;;;;;;;22.37;58.48;99490.47;7313429;19;130743;-32
2023/04/21 02:24:24;;;;;;;49.88;4.63;;;;;;;22.39;59.25;99492.94;7313803;19;130872;-35
2023/04/21 02:26:49;;;;;;;43.65;4.05;;;;;;;22.38;59.21;99499.16;7311668;19;129556;-34
2023/04/21 02:29:15;;;;;;;44.43;4.30;;;;;;;22.38;58.92;99497.34;7312601;19;131363;-39
2023/04/21 02:31:40;;;;;;;44.07;4.73;;;;;;;22.36;58.52;99496.66;7313356;19;130107;-35
2023/04/21 02:34:06;;;;;;;53.90;4.85;;;;;;;22.38;59.04;99499.97;7312723;19;130901;-39
2023/04/21 02:36:32;;;;;;;15.40;2.80;;;;;;;22.38;59.13;99496.53;7312865;19;130050;-38
2023/04/21 02:38:57;;;;;;;18.70;2.87;;;;;;;22.39;59.56;99500.78;7311738;19;129141;-32
2023/04/21 02:41:23;;;;;;;47.45;4.75;;;;;;;22.38;58.91;99493.91;7312119;19;130164;-36
2023/04/21 02:43:48;;;;;;;59.43;5.27;;;;;;;22.36;58.23;99495.84;7310337;19;130552;-35
2023/04/21 02:46:14;;;;;;;30.40;3.63;;;;;;;22.37;59.49;99492.25;7310521;19;130073;-37
2023/04/21 02:48:39;;;;;;;29.55;3.10;;;;;;;22.32;59.25;99492.69;7311689;19;128903;-39
2023/04/21 02:51:09;;;;;;;32.72;3.75;;;;;;;22.34;59.00;99498.63;7313896;19;130216;-35
2023/04/21 02:53:35;;;;;;;51.10;4.38;;;;;;;22.34;58.85;99498.63;7312455;19;130858;-38
2023/04/21 02:56:03;;;;;;;49.80;4.18;;;;;;;22.35;58.67;99499.41;7311502;19;129582;-37
2023/04/21 02:58:28;;;;;;;27.15;3.53;;;;;;;22.35;58.82;99494.19;7311921;19;130992;-34
2023/04/21 03:00:54;;;;;;;39.05;3.80;;;;;;;22.25;59.34;99472.47;7312623;19;131276;-32
2023/04/21 03:03:19;;;;;;;74.80;5.80;;;;;;;22.33;59.20;99493.53;7312065;19;130359;-39
2023/04/21 03:05:44;;;;;;;43.00;4.28;;;;;;;22.35;59.40;99494.19;7312514;19;128954;-35
2023/04/21 03:08:10;;;;;;;29.23;3.38;;;;;;;22.29;59.32;99486.91;7311267;19;129473;-39
2023/04/21 03:10:36;;;;;;;36.17;3.40;;;;;;;22.34;59.28;99496.00;7311887;19;130132;-35
2023/04/21 03:13:02;;;;;;;30.63;3.60;;;;;;;22.24;59.50;99479.50;7311326;19;130960;-36
2023/04/21 03:15:27;;;;;;;61.72;5.45;;;;;;;22.35;59.07;99499.41;7311659;19;128902;-34
2023/04/21 03:17:52;;;;;;;45.57;4.70;;;;;;;22.22;59.05;99478.00;7311734;19;128843;-36
2023/04/21 03:20:18;;;;;;;23.98;3.28;;;;;;;22.36;59.33;99493.22;7309107;19;129574;-38
2023/04/21 03:22:43;;;;;;;57.28;4.65;;;;;;;22.30;59.25;99485.94;7311163;19;129962;-34
2023/04/21 03:25:09;;;;;;;60.88;5.50;;;;;;;22.31;58.78;99487.59;7311436;19;129434;-37
2023/04/21 03:27:34;;;;;;;51.78;5.00;;;;;;;22.28;59.24;99486.09;7309289;19;129019;-40
2023/04/21 03:30:00;;;;;;;50.13;4.80;;;;;;;22.29;59.68;99484.31;7307408;19;129106;-36
2023/04/21 03:32:25;;;;;;;59.30;5.57;;;;;;;22.30;58.80;99496.41;7308035;19;129953;-37
2023/04/21 03:34:50;;;;;;;47.30;4.67;;;;;;;22.27;58.85;99489.69;7310018;19;128793;-36
2023/04/21 03:37:16;;;;;;;30.50;3.40;;;;;;;22.19;58.85;99494.00;7309097;19;129083;-37
2023/04/21 03:39:41;;;;;;;118.60;8.85;;;;;;;21.90;58.32;99494.13;7305476;19;129940;-34
2023/04/21 03:42:06;;;;;;;49.70;4.73;;;;;;;21.55;58.44;99491.34;7307595;19;129734;-38
2023/04/21 03:44:32;;;;;;;61.60;5.43;;;;;;;21.38;58.66;99476.38;7308964;19;129048;-37
2023/04/21 03:46:57;;;;;;;43.78;4.28;;;;;;;21.60;58.82;99497.78;7307528;19;130517;-35
2023/04/21 03:49:23;;;;;;;53.63;4.60;;;;;;;21.63;58.76;99497.53;7307900;19;130689;-40
2023/04/21 03:51:48;;;;;;;74.03;5.88;;;;;;;21.72;57.85;99501.88;7308759;19;129695;-34
2023/04/21 03:54:14;;;;;;;54.13;5.43;;;;;;;21.70;58.02;99488.13;7305279;19;130435;-35
2023/04/21 03:56:39;;;;;;;45.50;4.18;;;;;;;21.78;57.63;99501.34;7305514;19;131163;-38
2023/04/21 03:59:05;;;;;;;61.97;5.57;;;;;;;21.88;57.28;99502.13;7305519;19;130274;-31
2023/04/21 04:01:31;;;;;;;32.10;3.10;;;;;;;21.92;57.42;99500.06;7310236;19;130897;-30
2023/04/21 04:03:56;;;;;;;72.37;6.10;;;;;;;21.97;57.07;99505.69;7306625;19;129364;-38
2023/04/21 04:06:21;;;;;;;33.47;3.97;;;;;;;22.01;56.94;99500.97;7307020;19;129566;-35
2023/04/21 04:08:47;;;;;;;87.87;6.93;;;;;;;21.98;57.10;99508.16;7306913;19;129433;-36
2023/04/21 04:11:12;;;;;;;87.32;7.40;;;;;;;21.97;57.03;99521.38;7306370;19;130790;-39
2023/04/21 04:13:37;;;;;;;53.25;4.70;;;;;;;21.94;57.28;99514.66;7309016;19;130202;-32
2023/04/21 04:16:03;;;;;;;50.83;4.90;;;;;;;21.96;57.44;99515.31;7306260;19;131287;-36
2023/04/21 04:18:28;;;;;;;83.45;6.30;;;;;;;21.95;57.87;99512.84;7306698;19;130309;-36
2023/04/21 04:20:54;;;;;;;69.07;6.23;;;;;;;22.01;57.56;99511.44;7307061;19;131289;-38
2023/04/21 04:23:19;;;;;;;42.42;4.38;;;;;;;22.01;57.64;99527.16;7305858;19;130693;-35
2023/04/21 04:25:46;;;;;;;41.05;3.83;;;;;;;22.09;57.34;99516.78;7306422;19;130134;-38
2023/04/21 04:28:12;;;;;;;72.30;5.97;;;;;;;22.14;57.24;99515.41;7306116;19;132270;-38
2023/04/21 04:30:37;;;;;;;30.70;3.58;;;;;;;22.16;57.47;99516.09;7308232;19;130899;-37
2023/04/21 04:33:03;;;;;;;66.83;5.80;;;;;;;22.12;56.90;99492.94;7307001;19;130158;-37
2023/04/21 04:35:29;;;;;;;74.73;5.83;;;;;;;22.25;56.86;99511.75;7305774;19;131236;-33
2023/04/21 04:37:55;;;;;;;42.43;4.17;;;;;;;22.25;56.72;99514.38;7307954;19;129474;-33
2023/04/21 04:40:21;;;;;;;58.78;5.10;;;;;;;22.20;56.53;99506.13;7310389;19;129225;-39
2023/04/21 04:42:47;;;;;;;94.43;7.57;;;;;;;22.17;57.00;99511.66;7309390;19;129008;-39
2023/04/21 04:45:13;;;;;;;132.38;9.13;;;;;;;22.16;57.41;99515.25;7309910;19;130458;-33
2023/04/21 04:47:38;;;;;;;40.80;4.05;;;;;;;22.06;57.50;99517.09;7312867;19;130182;-33
2023/04/21 04:50:05;;;;;;;53.77;5.00;;;;;;;22.01;58.04;99519.31;7308110;19;130452;-39
2023/04/21 04:52:30;;;;;;;108.88;8.13;;;;;;;21.94;57.85;99519.06;7309008;19;129617;-35
2023/04/21 04:54:56;;;;;;;56.08;4.88;;;;;;;21.90;58.13;99512.44;7308639;19;130414;-38
2023/04/21 04:57:21;;;;;;;93.72;7.03;;;;;;;21.87;58.83;99515.34;7306744;19;130262;-40
2023/04/21 04:59:47;;;;;;;13.60;2.50;;;;;;;21.75;58.92;99498.19;7312585;19;129137;-31
2023/04/21 05:02:12;;;;;;;53.28;4.47;;;;;;;21.82;58.13;99513.19;7313033;19;129045;-37
2023/04/21 05:04:38;;;;;;;49.80;4.60;;;;;;;21.88;58.00;99527.50;7309787;19;129140;-32
2023/04/21 05:07:05;;;;;;;36.10;3.60;;;;;;;21.80;58.55;99530.81;7309241;19;129528;-34
2023/04/21 05:09:30;;;;;;;69.85;5.68;;;;;;;21.78;58.03;99519.66;7308162;19;129578;-34
2023/04/21 05:11:56;;;;;;;48.20;4.32;;;;;;;21.84;58.37;99521.72;7314054;19;129239;-35
2023/04/21 05:14:21;;;;;;;90.13;6.65;;;;;;;21.91;58.22;99532.44;7307301;19;130204;-37
2023/04/21 05:16:46;;;;;;;51.53;4.90;;;;;;;21.85;57.98;99510.28;7308949;19;131127;-38
2023/04/21 05:19:11;;;;;;;69.50;6.00;;;;;;;21.98;58.37;99529.09;7304198;19;130650;-28
2023/04/21 05:21:37;;;;;;;70.10;5.80;;;;;;;22.05;57.72;99528.53;7304894;19;131864;-37
2023/04/21 05:24:02;;;;;;;57.83;4.80;;;;;;;22.13;57.27;99533.88;7309772;19;131018;-40
2023/04/21 05:26:28;;;;;;;23.25;3.45;;;;;;;22.08;58.03;99528.25;7307279;19;130295;-37
2023/04/21 05:28:55;;;;;;;41.55;4.03;;;;;;;22.04;57.22;99535.56;7305593;19;130955;-28
2023/04/21 05:31:21;;;;;;;43.20;3.80;;;;;;;22.03;58.32;99538.31;7310297;19;130596;-31
2023/04/21 05:33:46;;;;;;;108.67;7.63;;;;;;;21.98;58.18;99536.16;7308559;19;130117;-43
2023/04/21 05:36:12;;;;;;;29.70;3.47;;;;;;;21.91;57.98;99532.44;7311398;19;129319;-33
2023/04/21 05:38:37;;;;;;;61.10;5.35;;;;;;;21.90;59.18;99529.00;7311715;19;131215;-38
2023/04/21 05:41:03;;;;;;;46.78;4.28;;;;;;;21.91;58.62;99533.25;7312635;19;128958;-37
2023/04/21 05:43:29;;;;;;;46.13;4.33;;;;;;;21.92;58.92;99534.06;7314284;19;129953;-36
2023/04/21 05:45:54;;;;;;;31.67;3.33;;;;;;;21.90;59.25;99539.47;7312444;19;129402;-32
2023/04/21 05:48:19;;;;;;;106.43;7.63;;;;;;;21.88;58.88;99532.72;7306934;19;130975;-35
2023/04/21 05:50:45;;;;;;;76.18;6.00;;;;;;;21.83;59.48;99525.28;7313801;19;128924;-34
2023/04/21 05:53:10;;;;;;;77.43;6.13;;;;;;;21.84;60.05;99537.41;7313106;19;129310;-40
2023/04/21 05:55:36;;;;;;;32.08;3.58;;;;;;;21.79;58.56;99529.16;7310873;19;129298;-39
2023/04/21 05:58:02;;;;;;;43.63;3.83;;;;;;;21.78;58.21;99527.50;7310802;19;129389;-37
2023/04/21 06:00:28;;;;;;;43.80;4.03;;;;;;;21.78;58.08;99530.13;7311956;19;129071;-35
2023/04/21 06:02:53;;;;;;;75.32;6.25;;;;;;;21.77;58.28;99528.47;7311052;19;129120;-36
2023/04/21 06:05:19;;;;;;;69.38;5.63;;;;;;;21.83;58.41;99529.72;7309472;19;130198;-35
2023/04/21 06:07:44;;;;;;;23.70;2.78;;;;;;;21.86;58.06;99530.25;7309826;19;130320;-34
2023/04/21 06:10:10;;;;;;;44.50;3.97;;;;;;;21.79;58.26;99507.41;7310875;19;129012;-34
2023/04/21 06:12:36;;;;;;;32.90;3.57;;;;;;;21.98;57.95;99524.84;7313775;19;128912;-36
2023/04/21 06:15:01;;;;;;;48.03;4.70;;;;;;;21.98;58.55;99516.97;7312805;19;129706;-31
2023/04/21 06:17:27;;;;;;;52.28;4.40;;;;;;;21.87;57.90;99510.13;7311897;19;129756;-38
2023/04/21 06:19:52;;;;;;;40.45;3.88;;;;;;;21.93;58.38;99525.28;7312418;19;129423;-36
2023/04/21 06:22:24;;;;;;;19.73;2.60;;;;;;;21.93;58.17;99515.59;7313686;19;128983;-35
2023/04/21 06:24:50;;;;;;;36.28;3.55;;;;;;;21.90;58.57;99510.66;7313071;19;130403;-36
2023/04/21 06:27:16;;;;;;;30.85;3.30;;;;;;;21.87;58.25;99516.19;7310152;19;131739;-38
2023/04/21 06:29:42;;;;;;;45.03;3.93;;;;;;;21.90;59.02;99517.69;7311655;19;129201;-38
2023/04/21 06:32:10;;;;;;;53.20;5.03;;;;;;;21.84;58.82;99507.78;7314619;19;131014;-34
2023/04/21 06:34:36;;;;;;;48.35;4.38;;;;;;;21.90;59.88;99518.53;7313129;19;129569;-36
2023/04/21 06:37:02;;;;;;;45.35;4.45;;;;;;;21.90;59.18;99509.84;7310502;19;129257;-31
2023/04/21 06:39:27;;;;;;;55.63;4.47;;;;;;;21.88;59.23;99514.41;7313078;19;129694;-35
2023/04/21 06:41:53;;;;;;;27.13;3.00;;;;;;;21.87;59.37;99510.97;7313227;19;129520;-30
2023/04/21 06:44:18;;;;;;;31.33;3.20;;;;;;;21.85;58.83;99510.28;7313648;19;130217;-36
2023/04/21 06:46:44;;;;;;;36.03;3.27;;;;;;;21.80;58.97;99515.09;7306086;19;129151;-36
2023/04/21 06:49:10;;;;;;;45.67;4.17;;;;;;;21.80;59.79;99509.03;7311703;19;129705;-37
2023/04/21 06:51:36;;;;;;;28.03;2.97;;;;;;;21.77;59.00;99512.78;7313020;19;128928;-39
2023/04/21 06:54:02;;;;;;;57.55;4.60;;;;;;;21.80;59.65;99511.66;7312327;19;130567;-33
2023/04/21 06:56:28;;;;;;;45.30;4.13;;;;;;;21.78;58.66;99505.75;7310891;19;130420;-34
2023/04/21 06:58:53;;;;;;;30.38;3.13;;;;;;;21.70;59.51;99509.03;7311235;19;129142;-38
2023/04/21 07:01:19;;;;;;;55.22;4.65;;;;;;;21.65;59.25;99500.78;7309424;19;130382;-35
2023/04/21 07:03:44;;;;;;;28.63;2.93;;;;;;;21.59;58.78;99501.38;7310339;19;130613;-36
2023/04/21 07:06:09;;;;;;;39.67;3.77;;;;;;;21.70;58.82;99503.81;7309948;19;129842;-37
2023/04/21 07:08:35;;;;;;;39.95;3.58;;;;;;;21.66;58.46;99486.75;7309531;19;129963;-35
2023/04/21 07:11:00;;;;;;;26.20;3.13;;;;;;;21.68;58.50;99495.28;7310470;19;130234;-38
2023/04/21 07:13:26;;;;;;;56.35;4.50;;;;;;;21.78;58.23;99495.31;7310605;19;129554;-38
2023/04/21 07:15:51;;;;;;;46.88;3.80;;;;;;;21.81;58.90;99503.69;7311595;19;130251;-32
2023/04/21 07:18:17;;;;;;;59.15;4.72;;;;;;;21.75;58.58;99488.50;7311678;19;128854;-35
2023/04/21 07:20:42;;;;;;;23.83;3.03;;;;;;;21.81;59.35;99503.69;7310931;19;128942;-33
2023/04/21 07:23:07;;;;;;;37.72;3.42;;;;;;;21.81;58.67;99501.06;7308078;19;130643;-37
2023/04/21 07:25:33;;;;;;;47.40;3.90;;;;;;;21.82;59.05;99499.25;7309145;19;130339;-38
2023/04/21 07:27:58;;;;;;;23.75;2.60;;;;;;;21.83;59.91;99499.13;7310109;19;128663;-33
2023/04/21 07:30:23;;;;;;;48.45;4.07;;;;;;;21.81;59.87;99495.84;7308293;19;129209;-36
2023/04/21 07:32:49;;;;;;;43.13;3.33;;;;;;;21.81;58.94;99506.31;7311991;19;129964;-32
2023/04/21 07:35:14;;;;;;;51.65;4.43;;;;;;;21.77;59.65;99498.88;7310854;19;130941;-33
2023/04/21 07:37:40;;;;;;;35.97;3.20;;;;;;;21.81;59.93;99502.84;7311201;19;129364;-37
2023/04/21 07:40:09;;;;;;;31.30;3.00;;;;;;;21.78;60.36;99496.09;7310150;19;129733;-32
2023/04/21 07:42:34;;;;;;;43.85;3.72;;;;;;;21.79;59.23;99496.94;7312633;19;129017;-35
2023/04/21 07:45:01;;;;;;;37.70;3.40;;;;;;;21.77;59.67;99499.69;7312257;19;130374;-34
2023/04/21 07:47:26;;;;;;;;;;;;;;;21.77;60.45;99494.47;7309904;19;129403;-38
2023/04/21 07:49:52;;;;;;;45.30;4.15;;;;;;;21.71;60.65;99489.78;7308517;19;129502;-37
2023/04/21 07:52:17;;;;;;;76.40;5.45;;;;;;;21.71;59.92;99494.19;7309741;19;130127;-39
2023/04/21 07:54:42;;;;;;;34.47;3.17;;;;;;;21.58;60.02;99476.19;7310262;19;129428;-39
2023/04/21 07:57:09;;;;;;;29.83;2.88;;;;;;;21.75;59.46;99500.78;7308922;19;129102;-41
2023/04/21 07:59:34;;;;;;;27.02;3.08;;;;;;;21.75;60.48;99492.94;7308953;19;129169;-32
2023/04/21 08:02:00;;;;;;;47.47;3.83;;;;;;;21.72;61.48;99483.56;7310207;19;129374;-35
2023/04/21 08:04:26;;;;;;;45.47;3.75;;;;;;;21.71;60.79;99500.25;7309350;19;131287;-38
2023/04/21 08:06:51;;;;;;;33.50;3.23;;;;;;;21.73;61.00;99487.81;7310269;19;129467;-34
2023/04/21 08:09:16;;;;;;;52.83;4.30;;;;;;;21.73;60.54;99479.97;7308570;19;129473;-40
2023/04/21 08:11:42;;;;;;;44.67;3.63;;;;;;;21.77;61.33;99480.53;7310790;19;129187;-38
2023/04/21 08:14:10;;;;;;;35.45;3.15;;;;;;;21.78;60.31;99488.25;7315478;19;130780;-38
2023/04/21 08:16:37;;;;;;;83.45;6.30;;;;;;;21.79;60.21;99479.44;7314189;19;129260;-37
2023/04/21 08:19:02;;;;;;;;;;;;;;;21.85;61.10;99478.88;7313443;19;130450;-38
2023/04/21 08:21:28;;;;;;;60.10;4.80;;;;;;;21.81;60.95;99480.13;7316554;19;129690;-40
2023/04/21 08:23:54;;;;;;;26.17;2.87;;;;;;;21.82;59.33;99483.56;7316654;19;130232;-39
2023/04/21 08:26:21;;;;;;;56.78;4.53;;;;;;;21.87;60.40;99482.16;7314821;19;129408;-40
2023/04/21 08:28:50;;;;;;;32.33;2.95;;;;;;;21.75;59.91;99470.19;7313557;19;129227;-38
2023/04/21 08:31:16;;;;;;;43.97;3.65;;;;;;;21.78;60.83;99469.13;7316269;19;130159;-38
2023/04/21 08:33:42;;;;;;;33.97;2.97;;;;;;;21.85;60.34;99476.25;7315759;19;129378;-40
2023/04/21 08:36:07;;;;;;;33.40;3.27;;;;;;;21.86;61.23;99456.16;7315335;19;131100;-40
2023/04/21 08:38:34;;;;;;;46.60;3.92;;;;;;;21.78;60.94;99443.75;7313741;19;129358;-38
2023/04/21 08:40:59;;;;;;;43.70;3.55;;;;;;;21.83;60.29;99456.44;7314878;19;130214;-37
2023/04/21 08:43:25;;;;;;;53.38;4.40;;;;;;;21.93;59.91;99473.72;7316522;19;130665;-37
2023/04/21 08:45:53;;;;;;;26.52;2.55;;;;;;;21.97;61.11;99463.78;7315874;19;129012;-39
2023/04/21 08:48:20;;;;;;;36.45;3.17;;;;;;;22.03;60.91;99465.03;7313867;19;130828;-36
2023/04/21 08:50:48;;;;;;;55.38;4.40;;;;;;;22.01;60.45;99459.09;7315374;19;130350;-34
2023/04/21 08:53:13;;;;;;;52.88;4.45;;;;;;;21.94;60.25;99469.31;7313269;19;130394;-39
2023/04/21 08:55:40;;;;;;;58.90;4.60;;;;;;;21.91;60.57;99454.72;7313812;19;130193;-37
2023/04/21 08:58:06;;;;;;;39.50;3.15;;;;;;;22.03;60.76;99467.63;7315917;19;131443;-39
2023/04/21 09:00:31;;;;;;;71.05;4.93;;;;;;;22.04;60.73;99456.19;7312137;19;131163;-41
2023/04/21 09:02:59;;;;;;;28.17;2.50;;;;;;;22.00;60.56;99457.47;7315384;19;130372;-38
2023/04/21 09:05:29;;;;;;;88.13;6.07;;;;;;;22.06;60.48;99462.09;7312518;19;129303;-39
2023/04/21 09:08:17;;;;;;;29.83;2.90;;;;;;;21.91;60.31;99459.97;7313692;19;129717;-38
2023/04/21 09:10:47;;;;;;;69.60;5.32;;;;;;;21.83;61.07;99461.66;7315251;19;131000;-37
2023/04/21 09:13:13;;;;;;;39.05;2.97;;;;;;;21.95;60.73;99463.94;7315356;19;129706;-35
2023/04/21 09:15:41;;;;;;;92.10;6.50;;;;;;;21.86;60.31;99445.69;7314211;19;129786;-38
2023/04/21 09:18:12;;;;;;;11.23;2.03;;;;;;;21.92;60.25;99432.84;7315707;19;128959;-40
2023/04/21 09:20:37;;;;;;;53.58;4.63;;;;;;;22.05;60.29;99450.00;7313193;19;130948;-38
2023/04/21 09:23:06;;;;;;;43.67;3.40;;;;;;;21.95;60.66;99450.84;7313732;19;129096;-38
2023/04/21 09:25:34;;;;;;;44.45;3.63;;;;;;;22.05;60.37;99450.81;7314011;19;129094;-40
2023/04/21 09:28:00;;;;;;;62.20;4.82;;;;;;;22.06;60.33;99455.09;7307520;19;129061;-38
2023/04/21 09:30:25;;;;;;;37.47;3.37;;;;;;;22.01;60.09;99438.16;7312307;19;131666;-35
2023/04/21 09:32:56;;;;;;;79.60;5.77;;;;;;;22.09;60.40;99446.94;7314596;19;130868;-39
2023/04/21 09:35:26;;;;;;;32.65;2.97;;;;;;;22.11;60.11;99454.63;7315593;19;130566;-37
2023/04/21 09:37:51;;;;;;;42.03;3.40;;;;;;;22.11;60.14;99458.09;7314046;19;129608;-37
2023/04/21 09:40:17;;;;;;;35.47;3.40;;;;;;;21.98;60.13;99440.09;7311949;19;129017;-36
2023/04/21 09:42:42;;;;;;;37.40;3.43;;;;;;;22.09;60.54;99446.09;7315477;19;129097;-35
2023/04/21 09:45:09;;;;;;;54.72;4.22;;;;;;;22.12;60.02;99446.63;7315074;19;128934;-35
2023/04/21 09:47:39;;;;;;;28.20;2.83;;;;;;;22.14;60.49;99451.72;7314002;19;130118;-39
2023/04/21 09:50:06;;;;;;;72.78;5.18;;;;;;;22.14;60.59;99449.09;7310527;19;130099;-36
2023/04/21 09:52:32;;;;;;;30.83;2.78;;;;;;;22.15;60.25;99440.28;7314202;19;130682;-36
2023/04/21 09:55:03;;;;;;;65.67;4.67;;;;;;;22.15;60.48;99437.69;7313287;19;129156;-37
2023/04/21 09:57:31;;;;;;;43.67;3.60;;;;;;;22.15;60.66;99456.81;7312790;19;130081;-35
2023/04/21 10:00:10;;;;;;;25.67;2.60;;;;;;;22.21;60.51;99444.94;7311141;19;130499;-39
2023/04/21 10:03:03;;;;;;;34.75;2.78;;;;;;;22.22;60.25;99430.84;7312855;19;130463;-38
2023/04/21 10:05:28;;;;;;;46.28;3.70;;;;;;;22.19;59.94;99428.53;7313754;19;128822;-38
2023/04/21 10:07:54;;;;;;;31.65;3.00;;;;;;;22.22;60.32;99434.31;7312137;19;129490;-36
2023/04/21 10:10:24;;;;;;;50.75;3.67;;;;;;;22.22;60.22;99426.47;7310938;19;130350;-38
2023/04/21 10:12:50;;;;;;;39.88;3.40;;;;;;;22.22;60.27;99425.63;7313561;19;130191;-37
2023/04/21 10:15:34;;;;;;;90.27;6.57;;;;;;;22.28;60.17;99419.81;7312511;19;130724;-38
2023/04/21 10:18:17;;;;;;;25.48;2.28;;;;;;;22.28;59.68;99411.97;7313654;19;129591;-37
2023/04/21 10:21:03;;;;;;;35.72;2.92;;;;;;;22.29;60.04;99416.22;7313210;19;130043;-38
2023/04/21 10:23:29;;;;;;;38.40;3.45;;;;;;;22.27;59.86;99407.66;7312343;19;129372;-37
2023/04/21 10:26:19;;;;;;;41.60;3.22;;;;;;;22.21;59.98;99401.25;7312877;19;129479;-37
2023/04/21 10:28:56;;;;;;;54.63;4.07;;;;;;;22.33;59.71;99399.25;7303402;19;129155;-36
2023/04/21 10:31:28;;;;;;;95.78;6.43;;;;;;;22.33;59.53;99402.66;7310217;19;130424;-35
2023/04/21 10:34:14;;;;;;;36.40;3.15;;;;;;;22.35;60.19;99410.38;7312417;19;130452;-37
2023/04/21 10:36:50;;;;;;;55.20;3.78;;;;;;;22.30;59.64;99386.41;7308731;19;129238;-39
2023/04/21 10:39:32;;;;;;;60.75;4.70;;;;;;;22.33;59.46;99389.56;7311218;19;130142;-39
2023/04/21 10:42:18;;;;;;;46.65;3.60;;;;;;;22.37;60.07;99418.91;7311400;19;130248;-37
2023/04/21 10:45:01;;;;;;;24.60;2.50;;;;;;;22.22;60.03;99399.44;7309003;19;130221;-36
2023/04/21 10:47:35;;;;;;;73.68;5.75;;;;;;;22.14;59.20;99401.97;7307857;19;131242;-38
2023/04/21 10:50:13;;;;;;;15.07;2.33;;;;;;;22.03;60.06;99396.97;7309683;19;129091;-35
2023/04/21 10:52:43;;;;;;;29.23;3.22;;;;;;;22.15;58.86;99411.50;7310705;19;129637;-40
2023/04/21 10:55:11;;;;;;;58.75;4.57;;;;;;;22.21;59.11;99395.19;7310973;19;130512;-38
2023/04/21 10:57:39;;;;;;;78.13;5.88;;;;;;;22.24;59.22;99400.94;7307793;19;129554;-37
2023/04/21 11:00:05;;;;;;;38.42;3.40;;;;;;;22.28;59.13;99396.25;7310750;19;128810;-38
2023/04/21 11:02:32;;;;;;;78.63;6.28;;;;;;;22.32;58.60;99402.81;7309899;19;130856;-39
2023/04/21 11:04:59;;;;;;;56.47;4.18;;;;;;;22.34;59.19;99385.16;7309166;19;130513;-35
2023/04/21 11:07:24;;;;;;;49.30;4.35;;;;;;;22.34;59.49;99380.75;7307965;19;129089;-36
2023/04/21 11:10:02;;;;;;;35.72;3.50;;;;;;;22.38;59.20;99394.38;7308848;19;131283;-38
2023/04/21 11:12:34;;;;;;;75.32;5.78;;;;;;;22.36;59.29;99378.78;7310811;19;130234;-37
2023/04/21 11:15:06;;;;;;;77.72;5.68;;;;;;;22.26;59.15;99380.69;7306971;19;131110;-39
2023/04/21 11:17:32;;;;;;;63.05;4.65;;;;;;;22.37;58.52;99390.09;7309618;19;129421;-38